Flight Track Log - Related Links

Times and Time Zones

All times are in EST time to prevent confusion due to time zone crossing. See the SWA472 flight status page for this flight to view local times or setup timezone preferences in your user account.

Time Position Orientation Groundspeed Altitude Reporting Facility
EST Latitude Longitude Course Direction KTS MPH feet Rate Location/Type
09:35PM 39.1833 -76.7000 270° West 165 190 1,400  Level Potomac TRACON
09:36PM 39.1833 -76.7833 270° West 213 245 4,300 2,810 Climbing Potomac TRACON
09:37PM 39.1833 -76.8667 270° West 243 280 7,300 3,316 Climbing Potomac TRACON
09:38PM 39.2000 -76.9500 284° West 251 289 10,600 2,737 Climbing Potomac TRACON
09:39PM 39.2000 -77.0500 270° West 295 339 12,500 2,143 Climbing Potomac TRACON
09:40PM 39.1833 -77.1667 260° West 337 388 15,100 2,476 Climbing Potomac TRACON
09:41PM 39.1000 -77.2500 218° Southwest 371 427 17,700 2,200 Climbing Potomac TRACON
09:42PM 39.0167 -77.3167 212° Southwest 389 448 19,500 1,507 Climbing Potomac TRACON
09:44PM 38.7436 -77.3936 192° South 426 490 23,000 1,148 Climbing Washington Center
09:45PM 38.6261 -77.4358 196° South 432 497 23,500 1,475 Climbing Washington Center
09:46PM 38.5231 -77.4944 204° Southwest 426 490 25,900 1,785 Climbing Washington Center
09:47PM 38.4200 -77.5553 205° Southwest 416 479 27,100 1,328 Climbing Washington Center
09:48PM 38.3389 -77.6564 224° Southwest 410 472 28,600 1,563 Climbing Washington Center
09:49PM 38.2683 -77.7631 230° Southwest 404 465 30,200 1,627 Climbing Washington Center
09:50PM 38.2017 -77.8694 231° Southwest 399 459 31,800 893 Climbing Washington Center
09:51PM 38.1308 -77.9756 230° Southwest 399 459 32,000 99 Climbing Washington Center
09:52PM 38.0619 -78.0814 230° Southwest 399 459 32,000  Level Washington Center
09:53PM 38.0017 -78.1717 230° Southwest 399 459 32,000  Level Washington Center
09:54PM 37.9153 -78.3003 230° Southwest 394 453 32,000  Level Washington Center
09:55PM 37.8442 -78.4031 229° Southwest 394 453 32,000  Level Washington Center
09:56PM 37.7686 -78.5078 228° Southwest 399 459 32,000  Level Washington Center
09:57PM 37.6972 -78.6128 229° Southwest 404 465 32,000  Level Washington Center
09:58PM 37.6281 -78.7122 229° Southwest 404 465 32,000  Level Washington Center
09:59PM 37.5542 -78.8167 228° Southwest 404 465 32,000  Level Washington Center
10:00PM 37.4806 -78.9208 228° Southwest 404 465 32,000  Level Washington Center
10:01PM 37.4044 -79.0272 228° Southwest 404 465 32,000  Level Washington Center
10:02PM 37.3283 -79.1308 227° Southwest 404 465 32,000  Level Washington Center
10:03PM 37.2500 -79.2394 228° Southwest 404 465 32,000  Level Washington Center
10:04PM 37.1781 -79.3456 230° Southwest 404 465 32,000  Level Washington Center
10:05PM 37.0989 -79.4667 231° Southwest 404 465 32,000 -496 Level Washington Center
10:06PM 37.0267 -79.5722 229° Southwest 409 471 31,000 -984 Descending Washington Center
10:07PM 36.9542 -79.6778 229° Southwest 409 471 30,000 -966 Descending Washington Center
10:08PM 36.8861 -79.7806 230° Southwest 403 464 29,100 -727 Descending Washington Center
10:10PM 36.7522 -79.9739 229° Southwest 403 464 28,000 -395 Descending Atlanta Center
10:11PM 36.6825 -80.0731 229° Southwest 410 472 28,000  Level Atlanta Center
10:12PM 36.6089 -80.1828 230° Southwest 415 478 28,000  Level Atlanta Center
10:13PM 36.5264 -80.2797 223° Southwest 415 478 28,000 -450 Level Atlanta Center
10:14PM 36.4108 -80.3264 198° South 415 478 27,100 -900 Descending Atlanta Center
10:15PM 36.2911 -80.3681 196° South 435 501 26,200 -1,050 Descending Atlanta Center
10:16PM 36.1653 -80.4097 195° South 440 506 25,000 -1,100 Descending Atlanta Center
10:17PM 36.0517 -80.4483 195° South 434 499 24,000 -1,000 Descending Atlanta Center
10:18PM 35.9442 -80.4864 196° South 429 494 23,000 -950 Descending Atlanta Center
10:19PM 35.8472 -80.5214 196° South 411 473 22,100 -1,000 Descending Atlanta Center
10:20PM 35.7486 -80.5692 201° Southwest 411 473 21,000 -1,050 Descending Atlanta Center
10:21PM 35.6928 -80.6661 235° Southwest 364 419 20,000 -600 Descending Atlanta Center
10:22PM 35.6433 -80.7653 238° Southwest 347 399 19,800 -563 Descending Atlanta Center
10:23PM 35.6097 -80.8331 239° Southwest 335 386 19,100 -1,000 Descending Atlanta Center
10:23PM 35.5936 -80.8592 233° Southwest 342 394 18,800 -900 Descending Atlanta Center
10:24PM 35.5600 -80.9319 240° Southwest 338 389 18,200 -1,000 Descending Atlanta Center
10:24PM 35.5439 -80.9581 233° Southwest 342 394 17,800 -689 Descending Atlanta Center
10:25PM 35.5103 -81.0256 239° Southwest 338 389 17,500 -600 Descending Atlanta Center
10:25PM 35.4922 -81.0544 232° Southwest 342 394 17,200 -984 Descending Atlanta Center
10:26PM 35.4542 -81.1297 238° Southwest 338 389 16,500 -1,000 Descending Atlanta Center
10:26PM 35.4361 -81.1608 235° Southwest 342 394 16,200 -985 Descending Atlanta Center
10:27PM 35.4003 -81.2336 239° Southwest 332 382 15,400 -1,000 Descending Atlanta Center
10:27PM 35.3883 -81.2569 238° Southwest 342 394 15,200 -1,040 Descending Atlanta Center
10:28PM 35.3383 -81.3528 237° Southwest 342 394 14,100 -1,050 Descending Atlanta Center
10:29PM 35.2903 -81.4458 238° Southwest 342 394 13,100 -1,250 Descending Atlanta Center
10:30PM 35.2461 -81.5311 238° Southwest 328 377 11,600 -1,250 Descending Atlanta Center
10:31PM 35.2083 -81.6214 243° Southwest 312 359 10,600 -850 Descending Atlanta Center
10:32PM 35.1703 -81.7089 242° Southwest 306 352 9,900 -450 Descending Atlanta Center
10:33PM 35.1344 -81.7911 242° Southwest 290 334 9,700 -850 Descending Atlanta Center
10:34PM 35.1003 -81.8733 243° Southwest 285 328 8,200 -1,550 Descending Atlanta Center
10:35PM 35.0664 -81.9553 243° Southwest 285 328 6,600 -1,850 Descending Atlanta Center
10:36PM 35.0322 -82.0350 242° Southwest 280 322 4,500 -1,700 Descending Atlanta Center
10:37PM 34.9978 -82.1092 240° Southwest 274 315 3,200 -1,000 Descending Atlanta Center
10:38PM 34.9694 -82.1631 237° Southwest 245 282 2,500 -750 Descending Atlanta Center
10:39PM 34.9364 -82.1867 210° Southwest 181 208 1,700 -500 Descending Atlanta Center
10:40PM 34.9100 -82.2278 232° Southwest 167 192 1,500 -200 Descending Atlanta Center
10:42PM 34.8957 -82.2189 231° Southwest  Level Estimated

Login

Don't have an account? Register now (free) for customized features, flight alerts, and more!